Cross Timbers, Missouri
Current Conditions -  °F | °C
As of 8:35 AM on Sunday 23 Nov 2014 (Local Time) from KH21 Reporting Station
Overcast Overcast  
Wind Chill: 54°   Ceiling: 900
Heat Index: 54°   Visibility: 10mi
Dew Point: 52°   Wind: 10mph
Humidity: 94%   Direction: 150°SSE
Pressure: 29.59"   Gusts: NA
Location:  38.02°N, 93.23°W
Report Text: KH21 231435Z AUTO 15009KT 10SM OVC009 12/11 A2959 RMK AO2
Loading
Personal Weather Stations






























Interactive Weather Map New forecast layout! Learn more

10-Day Weather Forecast

Advertisements
Track Severe Weather on mobile